createdAt,value
2022-08-17T00:01:52.817Z,37.47
2022-08-17T00:04:21.699Z,40.83
2022-08-17T00:06:50.848Z,32.70
2022-08-17T00:09:19.596Z,34.80
2022-08-17T00:12:35.476Z,38.13
2022-08-17T00:14:39.965Z,33.57
2022-08-17T00:17:09.878Z,32.77
2022-08-17T00:19:41.041Z,36.50
2022-08-17T00:22:34.903Z,32.03
2022-08-17T00:25:02.026Z,36.03
2022-08-17T00:27:30.681Z,34.73
2022-08-17T00:29:58.991Z,35.73
2022-08-17T00:33:13.602Z,35.70
2022-08-17T00:35:23.381Z,33.87
2022-08-17T00:37:51.786Z,35.17
2022-08-17T00:40:21.228Z,38.80
2022-08-17T00:42:53.524Z,39.07
2022-08-17T00:45:22.568Z,37.13
2022-08-17T00:47:52.329Z,40.93
2022-08-17T00:50:21.080Z,43.30
2022-08-17T00:52:57.106Z,37.33
2022-08-17T00:55:27.658Z,37.07
2022-08-17T00:58:01.786Z,43.07
2022-08-17T01:00:34.803Z,38.93
2022-08-17T01:03:10.841Z,37.43
2022-08-17T01:05:42.279Z,35.73
2022-08-17T01:08:14.641Z,34.80
2022-08-17T01:10:58.444Z,38.00
2022-08-17T01:13:36.760Z,34.37
2022-08-17T01:16:16.024Z,33.90
2022-08-17T01:18:48.050Z,38.20
2022-08-17T01:21:23.587Z,40.60
2022-08-17T01:23:53.610Z,36.53
2022-08-17T01:26:22.447Z,35.83
2022-08-17T01:28:54.223Z,40.00
2022-08-17T01:31:26.376Z,38.47
2022-08-17T01:33:55.050Z,39.87
2022-08-17T01:36:23.368Z,37.20
2022-08-17T01:38:53.355Z,35.83
2022-08-17T01:41:23.585Z,44.10
2022-08-17T01:43:55.823Z,38.90
2022-08-17T01:46:28.143Z,44.50
2022-08-17T01:48:58.010Z,39.93
2022-08-17T01:51:30.331Z,42.53
2022-08-17T01:54:02.488Z,40.00
2022-08-17T01:56:33.734Z,39.57
2022-08-17T01:59:02.598Z,41.77
2022-08-17T02:01:32.511Z,46.20
2022-08-17T02:04:01.979Z,42.50
2022-08-17T02:06:42.736Z,43.07
2022-08-17T02:09:17.213Z,43.07
2022-08-17T02:11:47.452Z,45.07
2022-08-17T02:14:16.060Z,46.10
2022-08-17T02:16:44.475Z,45.00
2022-08-17T02:19:15.771Z,43.90
2022-08-17T02:21:47.462Z,46.87
2022-08-17T02:25:00.385Z,48.50
2022-08-17T02:27:10.054Z,45.83
2022-08-17T02:29:38.581Z,45.97
2022-08-17T02:32:07.585Z,46.13
2022-08-17T02:34:36.013Z,50.47
2022-08-17T02:37:04.777Z,46.77
2022-08-17T02:39:34.461Z,50.63
2022-08-17T02:42:04.529Z,50.67
2022-08-17T02:44:39.468Z,46.97
2022-08-17T02:47:10.077Z,51.77
2022-08-17T02:49:39.019Z,50.57
2022-08-17T02:52:08.870Z,61.27
2022-08-17T02:54:39.825Z,59.60
2022-08-17T02:57:11.021Z,66.53
2022-08-17T02:59:48.351Z,60.63
2022-08-17T03:02:17.317Z,57.63
2022-08-17T03:04:45.606Z,64.77
2022-08-17T03:07:14.076Z,66.00
2022-08-17T03:09:44.457Z,67.70
2022-08-17T03:12:15.211Z,66.80
2022-08-17T03:14:44.951Z,63.20
2022-08-17T03:17:17.158Z,62.90
2022-08-17T03:19:49.817Z,68.97
2022-08-17T03:22:36.675Z,61.43
2022-08-17T03:25:10.653Z,58.30
2022-08-17T03:27:39.486Z,62.87
2022-08-17T03:30:13.227Z,68.77
2022-08-17T03:32:44.550Z,67.77
2022-08-17T03:35:15.000Z,64.50
2022-08-17T03:37:46.475Z,64.10
2022-08-17T03:40:17.231Z,62.37
2022-08-17T03:43:07.485Z,60.50
2022-08-17T03:45:53.880Z,68.93
2022-08-17T03:48:39.844Z,65.63
2022-08-17T03:51:25.685Z,71.50
2022-08-17T03:54:19.041Z,73.07
2022-08-17T03:56:59.376Z,75.70
2022-08-17T03:59:27.896Z,72.07
2022-08-17T04:02:01.909Z,74.17
2022-08-17T04:05:08.085Z,77.80
2022-08-17T04:08:05.221Z,81.03
2022-08-17T04:10:34.562Z,79.70
2022-08-17T04:13:14.729Z,86.27
2022-08-17T04:15:43.111Z,82.70
2022-08-17T04:18:11.238Z,87.30
2022-08-17T04:20:39.776Z,88.40
2022-08-17T04:23:13.014Z,88.87
2022-08-17T04:25:46.386Z,93.60
2022-08-17T04:28:16.756Z,94.43
2022-08-17T04:30:47.531Z,90.43
2022-08-17T04:33:18.365Z,88.83
2022-08-17T04:35:49.450Z,95.13
2022-08-17T04:38:20.639Z,96.07
2022-08-17T04:41:06.761Z,95.20
2022-08-17T04:43:37.722Z,103.50
2022-08-17T04:46:09.360Z,98.33
2022-08-17T04:48:40.775Z,97.57
2022-08-17T04:51:11.838Z,93.97
2022-08-17T04:53:40.885Z,99.57
2022-08-17T04:56:11.621Z,92.47
2022-08-17T04:58:48.217Z,90.07
2022-08-17T05:01:23.581Z,82.97
2022-08-17T05:03:53.345Z,99.40
2022-08-17T05:06:21.980Z,102.13
2022-08-17T05:08:52.435Z,99.83
2022-08-17T05:11:21.037Z,99.97
2022-08-17T05:13:52.051Z,94.77
2022-08-17T05:16:24.042Z,95.53
2022-08-17T05:18:53.300Z,94.27
2022-08-17T05:21:23.686Z,92.47
2022-08-17T05:23:55.075Z,99.40
2022-08-17T05:26:27.387Z,107.03
2022-08-17T05:29:03.013Z,100.60
2022-08-17T05:31:32.501Z,101.97
2022-08-17T05:34:00.755Z,108.57
2022-08-17T05:36:43.022Z,101.83
2022-08-17T05:39:16.108Z,102.50
2022-08-17T05:41:46.866Z,96.47
2022-08-17T05:44:17.084Z,103.40
2022-08-17T05:46:50.803Z,102.57
2022-08-17T05:49:25.963Z,103.77
2022-08-17T05:52:11.517Z,91.73
2022-08-17T05:54:52.904Z,100.30
2022-08-17T05:57:53.850Z,99.83
2022-08-17T06:00:30.690Z,102.10
2022-08-17T06:03:32.307Z,108.07
2022-08-17T06:06:18.334Z,101.13
2022-08-17T06:08:52.410Z,105.83
2022-08-17T06:11:31.371Z,106.27
2022-08-17T06:14:22.378Z,109.07
2022-08-17T06:16:56.760Z,99.27
2022-08-17T06:19:33.979Z,107.43
2022-08-17T06:22:05.835Z,110.13
2022-08-17T06:24:39.962Z,98.80
2022-08-17T06:27:13.318Z,97.73
2022-08-17T06:29:50.093Z,101.30
2022-08-17T06:32:19.932Z,99.73
2022-08-17T06:34:49.034Z,104.07
2022-08-17T06:37:43.865Z,108.40
2022-08-17T06:40:38.415Z,114.80
2022-08-17T06:43:18.657Z,105.70
2022-08-17T06:45:51.127Z,107.10
2022-08-17T06:48:26.086Z,109.93
2022-08-17T06:50:57.867Z,105.87
2022-08-17T06:53:31.726Z,105.10
2022-08-17T06:56:04.263Z,106.00
2022-08-17T06:58:33.727Z,103.77
2022-08-17T07:01:10.612Z,102.97
2022-08-17T07:03:47.727Z,112.33
2022-08-17T07:06:19.271Z,109.30
2022-08-17T07:08:56.300Z,105.50
2022-08-17T07:11:41.876Z,109.73
2022-08-17T07:14:23.918Z,109.97
2022-08-17T07:16:54.629Z,106.53
2022-08-17T07:19:28.395Z,111.80
2022-08-17T07:22:03.806Z,109.30
2022-08-17T07:24:37.442Z,113.53
2022-08-17T07:27:12.966Z,110.60
2022-08-17T07:29:46.785Z,115.10
2022-08-17T07:32:18.620Z,113.57
2022-08-17T07:35:16.134Z,103.70
2022-08-17T07:37:53.278Z,110.17
2022-08-17T07:40:27.710Z,111.27
2022-08-17T07:43:21.920Z,109.73
2022-08-17T07:46:34.105Z,105.30
2022-08-17T07:49:19.997Z,107.67
2022-08-17T07:51:59.967Z,103.00
2022-08-17T07:54:43.393Z,99.13
2022-08-17T07:57:40.459Z,107.30
2022-08-17T08:00:32.004Z,101.30
2022-08-17T08:03:16.998Z,96.80
2022-08-17T08:05:57.398Z,97.17
2022-08-17T08:08:31.227Z,97.50
2022-08-17T08:11:03.567Z,101.37
2022-08-17T08:13:33.683Z,101.13
2022-08-17T08:16:23.922Z,89.03
2022-08-17T08:18:56.855Z,94.33
2022-08-17T08:21:37.496Z,95.43
2022-08-17T08:24:32.559Z,95.33
2022-08-17T08:27:09.530Z,84.20
2022-08-17T08:29:50.507Z,99.00
2022-08-17T08:32:24.189Z,93.90
2022-08-17T08:35:03.821Z,95.90
2022-08-17T08:37:43.537Z,90.13
2022-08-17T08:40:34.877Z,94.43
2022-08-17T08:43:12.986Z,91.03
2022-08-17T08:45:51.034Z,84.20
2022-08-17T08:48:58.085Z,88.90
2022-08-17T08:51:32.416Z,85.67
2022-08-17T08:54:09.321Z,97.27
2022-08-17T08:57:19.169Z,96.90
2022-08-17T08:59:42.045Z,95.43
2022-08-17T09:02:25.123Z,90.80
2022-08-17T09:05:20.358Z,83.77
2022-08-17T09:08:00.258Z,82.50
2022-08-17T09:10:33.733Z,88.43
2022-08-17T09:13:12.168Z,94.43
2022-08-17T09:15:44.228Z,85.03
2022-08-17T09:19:01.293Z,73.30
2022-08-17T09:21:15.467Z,77.97
2022-08-17T09:23:59.957Z,75.73
2022-08-17T09:26:43.164Z,74.17
2022-08-17T09:29:17.781Z,73.93
2022-08-17T09:31:55.197Z,78.30
2022-08-17T09:34:33.088Z,76.73
2022-08-17T09:37:16.900Z,68.97
2022-08-17T09:39:53.177Z,65.87
2022-08-17T09:42:27.115Z,62.93
2022-08-17T09:45:07.856Z,67.43
2022-08-17T09:47:45.478Z,68.73
2022-08-17T09:51:05.342Z,66.97
2022-08-17T09:53:10.500Z,64.43
2022-08-17T09:55:59.820Z,61.50
2022-08-17T09:58:37.352Z,68.17
2022-08-17T10:01:21.289Z,65.60
2022-08-17T10:04:16.148Z,66.83
2022-08-17T10:06:54.255Z,65.83
2022-08-17T10:09:38.304Z,66.27
2022-08-17T10:12:20.450Z,69.67
2022-08-17T10:15:09.816Z,70.87
2022-08-17T10:17:47.575Z,75.00
2022-08-17T10:20:21.800Z,73.53
2022-08-17T10:23:21.560Z,72.03
2022-08-17T10:26:10.330Z,71.17
2022-08-17T10:28:44.836Z,71.80
2022-08-17T10:31:40.783Z,68.27
2022-08-17T10:34:43.334Z,72.27
2022-08-17T10:37:51.655Z,69.07
2022-08-17T10:40:36.067Z,68.23
2022-08-17T10:43:24.676Z,71.53
2022-08-17T10:46:10.443Z,68.87
2022-08-17T10:49:14.985Z,70.80
2022-08-17T10:51:47.584Z,68.60
2022-08-17T10:54:38.230Z,69.93
2022-08-17T10:57:37.528Z,69.03
2022-08-17T11:00:12.988Z,69.60
2022-08-17T11:02:53.312Z,66.33
2022-08-17T11:05:44.438Z,71.03
2022-08-17T11:08:57.699Z,74.27
2022-08-17T11:11:58.743Z,68.50
2022-08-17T11:14:42.275Z,76.73
2022-08-17T11:17:22.729Z,73.10
2022-08-17T11:20:13.747Z,67.33
2022-08-17T11:23:21.683Z,69.03
2022-08-17T11:25:55.587Z,67.73
2022-08-17T11:28:28.166Z,61.77
2022-08-17T11:30:59.383Z,67.23
2022-08-17T11:33:56.022Z,66.17
2022-08-17T11:36:43.176Z,55.97
2022-08-17T11:39:35.586Z,62.00
2022-08-17T11:42:12.909Z,59.17
2022-08-17T11:44:53.840Z,57.00
2022-08-17T11:48:09.018Z,52.63
2022-08-17T11:51:16.710Z,64.53
2022-08-17T11:54:30.587Z,59.37
2022-08-17T11:56:53.054Z,64.47
2022-08-17T12:00:00.921Z,60.37
2022-08-17T12:02:39.154Z,56.00
2022-08-17T12:05:33.990Z,57.27
2022-08-17T12:08:15.988Z,56.63
2022-08-17T12:10:57.254Z,59.07
2022-08-17T12:13:27.463Z,61.50
2022-08-17T12:16:10.153Z,56.50
2022-08-17T12:18:39.730Z,66.50
2022-08-17T12:21:19.697Z,49.40
2022-08-17T12:23:57.321Z,46.47
2022-08-17T12:26:31.429Z,55.00
2022-08-17T12:29:02.978Z,56.23
2022-08-17T12:31:36.693Z,57.80
2022-08-17T12:34:06.062Z,40.83
2022-08-17T12:36:36.346Z,38.73
2022-08-17T12:39:12.883Z,38.60
2022-08-17T12:41:44.428Z,34.83
2022-08-17T12:44:15.813Z,36.60
2022-08-17T12:46:51.317Z,36.97
2022-08-17T12:49:26.566Z,36.57
2022-08-17T12:52:02.283Z,32.43
2022-08-17T12:54:38.298Z,33.10
2022-08-17T12:57:12.206Z,28.00
2022-08-17T12:59:43.639Z,25.30
2022-08-17T13:02:32.314Z,21.67
2022-08-17T13:05:03.620Z,21.27
2022-08-17T13:07:35.702Z,21.60
2022-08-17T13:10:05.311Z,24.30
2022-08-17T13:12:36.345Z,22.87
2022-08-17T13:15:05.399Z,19.30
2022-08-17T13:17:38.201Z,19.40
2022-08-17T13:20:14.599Z,17.70
2022-08-17T13:22:45.457Z,24.37
2022-08-17T13:25:17.858Z,20.90
2022-08-17T13:27:48.703Z,18.50
2022-08-17T13:30:23.825Z,15.70
2022-08-17T13:32:54.065Z,15.20
2022-08-17T13:35:50.479Z,15.77
2022-08-17T13:38:40.560Z,16.53
2022-08-17T13:41:08.914Z,16.47
2022-08-17T13:43:45.856Z,20.80
2022-08-17T13:46:21.054Z,19.30
2022-08-17T13:48:59.548Z,19.50
2022-08-17T13:51:37.356Z,19.10
2022-08-17T13:54:21.735Z,18.63
2022-08-17T13:57:01.994Z,18.67
2022-08-17T13:59:53.146Z,20.50
2022-08-17T14:02:28.611Z,21.50
2022-08-17T14:05:00.628Z,22.70
2022-08-17T14:07:33.802Z,25.70
2022-08-17T14:10:05.876Z,23.77
2022-08-17T14:12:37.933Z,27.03
2022-08-17T14:15:08.215Z,30.93
2022-08-17T14:17:38.921Z,30.60
2022-08-17T14:20:12.540Z,33.53
2022-08-17T14:22:45.097Z,31.73
2022-08-17T14:25:15.777Z,30.57
2022-08-17T14:27:53.269Z,31.10
2022-08-17T14:30:24.693Z,30.50
2022-08-17T14:32:54.038Z,29.80
2022-08-17T14:35:25.101Z,27.23
2022-08-17T14:37:54.312Z,29.60
2022-08-17T14:40:24.961Z,28.23
2022-08-17T14:42:55.659Z,31.33
2022-08-17T14:45:32.027Z,27.03
2022-08-17T14:48:04.357Z,26.90
2022-08-17T14:50:35.830Z,27.47
2022-08-17T14:53:06.195Z,26.20
2022-08-17T14:55:34.604Z,25.60
2022-08-17T14:58:04.031Z,24.53
2022-08-17T15:00:32.952Z,25.97
2022-08-17T15:03:02.567Z,23.63
2022-08-17T15:05:34.726Z,25.77
2022-08-17T15:08:04.639Z,27.13
2022-08-17T15:10:33.030Z,26.33
2022-08-17T15:13:01.586Z,25.80
2022-08-17T15:15:30.643Z,25.50
2022-08-17T15:17:59.929Z,25.70
2022-08-17T15:20:30.176Z,26.63
2022-08-17T15:23:03.087Z,27.43
2022-08-17T15:25:33.324Z,26.07
2022-08-17T15:28:02.721Z,25.53
2022-08-17T15:30:31.617Z,26.27
2022-08-17T15:33:01.147Z,26.80
2022-08-17T15:35:32.082Z,26.20
2022-08-17T15:38:10.770Z,27.13
2022-08-17T15:40:44.577Z,30.53
2022-08-17T15:43:14.982Z,26.63
2022-08-17T15:45:43.795Z,31.00
2022-08-17T15:48:14.299Z,29.03
2022-08-17T15:50:45.445Z,30.70
2022-08-17T15:53:15.471Z,28.37
2022-08-17T15:55:44.031Z,27.87
2022-08-17T15:58:12.320Z,31.10
2022-08-17T16:00:53.294Z,29.17
2022-08-17T16:04:01.255Z,26.30
2022-08-17T16:06:23.318Z,30.23
2022-08-17T16:08:54.410Z,29.40
2022-08-17T16:11:23.343Z,32.07
2022-08-17T16:13:54.962Z,27.90
2022-08-17T16:16:24.736Z,24.17
2022-08-17T16:18:58.798Z,22.70
2022-08-17T16:21:42.547Z,22.00
2022-08-17T16:24:14.837Z,21.63
2022-08-17T16:26:43.952Z,19.67
2022-08-17T16:29:12.433Z,21.03
2022-08-17T16:31:41.450Z,23.37
2022-08-17T16:34:17.527Z,21.07
2022-08-17T16:36:55.456Z,20.73
2022-08-17T16:39:29.011Z,21.43
2022-08-17T16:41:58.855Z,18.07
2022-08-17T16:44:30.461Z,19.60
2022-08-17T16:46:59.776Z,19.40
2022-08-17T16:49:36.901Z,20.43
2022-08-17T16:52:11.397Z,21.13
2022-08-17T16:54:43.729Z,19.47
2022-08-17T16:57:12.932Z,20.60
2022-08-17T16:59:43.665Z,19.23
2022-08-17T17:02:16.069Z,18.37
2022-08-17T17:04:50.473Z,18.00
2022-08-17T17:07:34.883Z,18.90
2022-08-17T17:10:09.738Z,13.40
2022-08-17T17:13:02.303Z,15.07
2022-08-17T17:15:53.600Z,14.70
2022-08-17T17:18:29.144Z,16.23
2022-08-17T17:20:58.868Z,16.63
2022-08-17T17:23:52.330Z,16.57
2022-08-17T17:26:35.227Z,19.53
2022-08-17T17:29:26.181Z,16.83
2022-08-17T17:32:03.118Z,14.27
2022-08-17T17:34:33.692Z,15.43
2022-08-17T17:37:08.888Z,16.37
2022-08-17T17:39:43.796Z,16.10
2022-08-17T17:42:19.895Z,16.43
2022-08-17T17:45:00.743Z,17.70
2022-08-17T17:47:30.213Z,16.00
2022-08-17T17:50:01.976Z,14.87
2022-08-17T17:52:38.834Z,13.27
2022-08-17T17:55:30.824Z,15.17
2022-08-17T17:58:10.414Z,14.43
2022-08-17T18:00:45.706Z,14.87
2022-08-17T18:03:31.029Z,13.97
2022-08-17T18:06:21.283Z,14.20
2022-08-17T18:09:08.778Z,14.27
2022-08-17T18:11:54.999Z,16.80
2022-08-17T18:14:44.163Z,15.40
2022-08-17T18:17:12.727Z,15.53
2022-08-17T18:19:41.644Z,19.00
2022-08-17T18:22:14.493Z,18.13
2022-08-17T18:24:44.758Z,19.43
2022-08-17T18:27:24.123Z,18.80
2022-08-17T18:29:56.100Z,19.67
2022-08-17T18:32:35.121Z,20.97
2022-08-17T18:35:28.303Z,21.33
2022-08-17T18:37:59.116Z,22.23
2022-08-17T18:40:37.884Z,23.93
2022-08-17T18:43:26.340Z,27.13
2022-08-17T18:45:58.186Z,25.87
2022-08-17T18:48:32.841Z,26.80
2022-08-17T18:51:21.595Z,27.40
2022-08-17T18:54:18.179Z,32.43
2022-08-17T18:56:55.288Z,33.77
2022-08-17T18:59:32.561Z,34.23
2022-08-17T19:02:44.613Z,31.67
2022-08-17T19:05:57.660Z,37.10
2022-08-17T19:09:32.617Z,37.93
2022-08-17T19:12:49.040Z,39.03
2022-08-17T19:16:14.475Z,38.00
2022-08-17T19:19:34.450Z,41.37
2022-08-17T19:22:53.645Z,43.80
